createdAt,value
2023-02-12T07:45:38.639Z,100.00
2023-02-12T07:48:40.531Z,100.00
2023-02-12T07:51:42.056Z,100.00
2023-02-12T07:54:43.704Z,100.00
2023-02-12T07:57:47.619Z,100.00
2023-02-12T08:00:49.244Z,100.00
2023-02-12T08:03:51.007Z,100.00
2023-02-12T08:06:54.244Z,100.00
2023-02-12T08:09:55.823Z,100.00
2023-02-12T08:12:57.339Z,100.00
2023-02-12T08:16:07.072Z,100.00
2023-02-12T08:19:17.881Z,100.00
2023-02-12T08:22:21.157Z,100.00
2023-02-12T08:25:22.697Z,100.00
2023-02-12T08:28:24.286Z,100.00
2023-02-12T08:31:27.178Z,100.00
2023-02-12T08:34:30.542Z,100.00
2023-02-12T08:37:32.424Z,100.00
2023-02-12T08:40:33.970Z,100.00
2023-02-12T08:43:35.725Z,100.00
2023-02-12T08:46:38.969Z,100.00
2023-02-12T08:49:40.755Z,100.00
2023-02-12T08:52:43.745Z,100.00
2023-02-12T08:55:49.789Z,100.00
2023-02-12T08:58:51.369Z,100.00
2023-02-12T09:01:53.019Z,100.00
2023-02-12T09:04:54.570Z,98.43
2023-02-12T09:07:56.078Z,100.00
2023-02-12T09:10:57.636Z,100.00
2023-02-12T09:14:02.332Z,99.99
2023-02-12T09:17:03.894Z,100.00
2023-02-12T09:20:05.988Z,98.61
2023-02-12T09:23:07.834Z,94.77
2023-02-12T09:26:11.245Z,89.67
2023-02-12T09:29:12.804Z,92.90
2023-02-12T09:32:14.398Z,91.08
2023-02-12T09:35:16.065Z,87.26
2023-02-12T09:38:17.600Z,84.73
2023-02-12T09:41:38.051Z,85.33
2023-02-12T09:45:15.098Z,85.75
2023-02-12T09:48:41.350Z,81.60
2023-02-12T09:51:44.048Z,83.31
2023-02-12T09:54:46.004Z,80.77
2023-02-12T09:57:47.445Z,76.72
2023-02-12T10:00:49.029Z,81.33
2023-02-12T10:03:51.898Z,76.14
2023-02-12T10:07:12.209Z,74.46
2023-02-12T10:10:44.766Z,72.65
2023-02-12T10:13:55.217Z,80.45
2023-02-12T10:17:14.885Z,87.05
2023-02-12T10:20:47.500Z,83.89
2023-02-12T10:24:07.273Z,83.17
2023-02-12T10:27:17.091Z,85.08
2023-02-12T10:30:20.481Z,86.40
2023-02-12T10:33:30.280Z,91.41
2023-02-12T10:36:37.587Z,91.33
2023-02-12T10:39:42.889Z,88.06
2023-02-12T10:42:45.337Z,89.01
2023-02-12T10:45:46.939Z,87.97
2023-02-12T10:48:49.966Z,89.01
2023-02-12T10:52:09.757Z,87.50
2023-02-12T10:55:32.390Z,85.52
2023-02-12T10:58:33.973Z,87.96
2023-02-12T11:01:37.714Z,85.35
2023-02-12T11:04:40.313Z,83.62
2023-02-12T11:07:49.480Z,80.74
2023-02-12T11:10:50.998Z,78.79
2023-02-12T11:13:58.475Z,74.70
2023-02-12T11:17:00.306Z,74.63
2023-02-12T11:20:20.877Z,70.19
2023-02-12T11:23:30.604Z,69.68
2023-02-12T11:26:32.124Z,72.73
2023-02-12T11:29:33.749Z,71.58
2023-02-12T11:32:35.329Z,74.54
2023-02-12T11:35:36.832Z,77.28
2023-02-12T11:38:39.846Z,79.87
2023-02-12T11:41:41.383Z,86.50
2023-02-12T11:44:51.491Z,92.50
2023-02-12T11:47:53.029Z,98.02
2023-02-12T11:50:56.068Z,100.00
2023-02-12T11:54:01.188Z,100.00
2023-02-12T11:57:02.707Z,100.00
2023-02-12T12:00:06.920Z,100.00
2023-02-12T12:03:35.302Z,100.00
2023-02-12T12:06:41.772Z,100.00
2023-02-12T12:09:49.340Z,100.00
2023-02-12T12:12:58.861Z,100.00
2023-02-12T12:16:26.202Z,100.00
2023-02-12T12:19:52.926Z,100.00
2023-02-12T12:23:01.611Z,100.00
2023-02-12T12:26:31.651Z,100.00
2023-02-12T12:29:45.126Z,100.00
2023-02-12T12:32:47.149Z,100.00
2023-02-12T12:36:03.312Z,100.00
2023-02-12T12:39:26.073Z,100.00
2023-02-12T12:43:00.042Z,100.00
2023-02-12T12:46:15.394Z,100.00
2023-02-12T12:49:30.575Z,100.00
2023-02-12T12:52:39.428Z,100.00
2023-02-12T12:56:22.798Z,100.00
2023-02-12T12:59:35.367Z,100.00
2023-02-12T13:02:55.690Z,100.00
2023-02-12T13:06:18.960Z,100.00
2023-02-12T13:09:23.310Z,100.00
2023-02-12T13:12:43.711Z,100.00
2023-02-12T13:16:09.384Z,100.00
2023-02-12T13:19:43.970Z,100.00
2023-02-12T13:22:48.352Z,100.00
2023-02-12T13:26:42.321Z,100.00
2023-02-12T13:29:52.452Z,100.00
2023-02-12T13:33:07.267Z,100.00
2023-02-12T13:36:10.608Z,100.00
2023-02-12T13:39:34.853Z,100.00
2023-02-12T13:42:57.884Z,100.00
2023-02-12T13:46:22.355Z,100.00
2023-02-12T13:49:35.885Z,100.00
2023-02-12T13:52:54.347Z,100.00
2023-02-12T13:56:02.081Z,100.00
2023-02-12T13:59:03.688Z,100.00
2023-02-12T14:02:33.342Z,100.00
2023-02-12T14:05:35.313Z,100.00
2023-02-12T14:08:38.812Z,100.00
2023-02-12T14:11:48.457Z,100.00
2023-02-12T14:14:50.891Z,100.00
2023-02-12T14:17:52.667Z,100.00
2023-02-12T14:21:10.038Z,100.00
2023-02-12T14:24:36.433Z,95.46
2023-02-12T14:27:45.783Z,87.41
2023-02-12T14:30:47.601Z,83.69
2023-02-12T14:33:50.656Z,79.81
2023-02-12T14:37:18.685Z,82.17
2023-02-12T14:40:36.493Z,84.60
2023-02-12T14:43:56.802Z,89.43
2023-02-12T14:47:06.784Z,91.95
2023-02-12T14:50:20.612Z,94.03
2023-02-12T14:53:24.178Z,98.25
2023-02-12T14:56:25.685Z,98.46
2023-02-12T14:59:27.286Z,100.00
2023-02-12T15:02:30.396Z,100.00
2023-02-12T15:05:34.468Z,100.00
2023-02-12T15:08:39.822Z,100.00
2023-02-12T15:11:50.527Z,100.00
2023-02-12T15:15:06.863Z,100.00
2023-02-12T15:18:29.436Z,100.00
2023-02-12T15:21:34.040Z,100.00
2023-02-12T15:24:35.568Z,100.00
2023-02-12T15:27:37.508Z,100.00
2023-02-12T15:30:39.032Z,100.00
2023-02-12T15:33:41.719Z,100.00
2023-02-12T15:36:44.495Z,100.00
2023-02-12T15:39:46.655Z,100.00
2023-02-12T15:43:04.546Z,100.00
2023-02-12T15:46:07.661Z,100.00
2023-02-12T15:49:19.455Z,100.00
2023-02-12T15:52:24.737Z,100.00
2023-02-12T15:55:28.348Z,100.00
2023-02-12T15:58:32.801Z,100.00
2023-02-12T16:01:35.151Z,100.00
2023-02-12T16:04:37.722Z,100.00
2023-02-12T16:07:39.604Z,100.00
2023-02-12T16:10:52.297Z,100.00
2023-02-12T16:13:58.555Z,100.00
2023-02-12T16:17:00.200Z,100.00
2023-02-12T16:20:19.820Z,100.00
2023-02-12T16:23:23.776Z,100.00
2023-02-12T16:26:25.676Z,100.00
2023-02-12T16:29:27.207Z,100.00
2023-02-12T16:32:32.595Z,100.00
2023-02-12T16:35:34.458Z,100.00
2023-02-12T16:38:43.649Z,100.00
2023-02-12T16:41:53.188Z,100.00
2023-02-12T16:44:55.668Z,100.00
2023-02-12T16:48:07.030Z,100.00
2023-02-12T16:51:23.170Z,100.00
2023-02-12T16:54:29.093Z,100.00
2023-02-12T16:57:30.645Z,100.00
2023-02-12T17:00:32.183Z,100.00
2023-02-12T17:03:34.247Z,100.00
2023-02-12T17:06:35.794Z,100.00
2023-02-12T17:09:37.358Z,100.00
2023-02-12T17:12:51.022Z,100.00
2023-02-12T17:15:57.434Z,100.00
2023-02-12T17:19:00.035Z,100.00
2023-02-12T17:22:02.524Z,100.00
2023-02-12T17:25:04.529Z,100.00
2023-02-12T17:28:06.157Z,100.00
2023-02-12T17:31:11.056Z,100.00
2023-02-12T17:34:12.620Z,100.00
2023-02-12T17:37:14.127Z,100.00
2023-02-12T17:40:16.393Z,100.00
2023-02-12T17:43:17.919Z,100.00
2023-02-12T17:46:21.994Z,100.00
2023-02-12T17:49:23.545Z,100.00
2023-02-12T17:52:25.072Z,100.00
2023-02-12T17:55:26.669Z,100.00
2023-02-12T17:58:28.241Z,100.00
2023-02-12T18:01:29.835Z,100.00
2023-02-12T18:04:33.955Z,100.00
2023-02-12T18:07:35.702Z,100.00
2023-02-12T18:10:41.496Z,100.00
2023-02-12T18:13:43.093Z,100.00
2023-02-12T18:16:44.653Z,100.00
2023-02-12T18:19:48.033Z,100.00
2023-02-12T18:22:50.285Z,100.00
2023-02-12T18:25:51.800Z,100.00
2023-02-12T18:28:54.104Z,100.00
2023-02-12T18:31:55.651Z,100.00
2023-02-12T18:34:57.346Z,100.00
2023-02-12T18:37:59.007Z,100.00
2023-02-12T18:41:00.587Z,100.00
2023-02-12T18:44:02.163Z,100.00
2023-02-12T18:47:03.810Z,100.00
2023-02-12T18:50:06.335Z,100.00
2023-02-12T18:53:07.988Z,100.00
2023-02-12T18:56:10.085Z,100.00
2023-02-12T18:59:13.185Z,100.00
2023-02-12T19:02:14.920Z,100.00
2023-02-12T19:05:17.020Z,100.00
2023-02-12T19:08:18.653Z,100.00
2023-02-12T19:11:20.199Z,100.00
2023-02-12T19:14:22.078Z,100.00
2023-02-12T19:17:23.596Z,100.00
2023-02-12T19:20:25.190Z,100.00
2023-02-12T19:23:26.737Z,100.00
2023-02-12T19:26:28.994Z,100.00
2023-02-12T19:29:30.584Z,100.00
2023-02-12T19:32:32.156Z,100.00
2023-02-12T19:35:36.804Z,100.00
2023-02-12T19:38:38.384Z,100.00
2023-02-12T19:41:42.759Z,100.00
2023-02-12T19:44:44.636Z,100.00
2023-02-12T19:47:46.213Z,100.00
2023-02-12T19:50:47.755Z,100.00
2023-02-12T19:53:49.352Z,100.00
2023-02-12T19:56:52.014Z,100.00
2023-02-12T19:59:53.580Z,100.00
2023-02-12T20:02:55.152Z,100.00
2023-02-12T20:06:10.913Z,100.00
2023-02-12T20:09:12.874Z,100.00
2023-02-12T20:12:14.393Z,100.00
2023-02-12T20:15:15.966Z,100.00
2023-02-12T20:18:17.591Z,100.00
2023-02-12T20:21:23.261Z,100.00
2023-02-12T20:24:26.341Z,100.00
2023-02-12T20:27:27.839Z,100.00
2023-02-12T20:30:29.346Z,100.00
2023-02-12T20:33:30.883Z,100.00
2023-02-12T20:36:33.955Z,100.00
2023-02-12T20:39:35.513Z,100.00
2023-02-12T20:42:37.881Z,100.00
2023-02-12T20:45:39.431Z,100.00
2023-02-12T20:48:41.179Z,100.00
2023-02-12T20:51:43.061Z,100.00
2023-02-12T20:54:46.361Z,100.00
2023-02-12T20:57:49.572Z,100.00
2023-02-12T21:00:51.105Z,100.00
2023-02-12T21:03:53.679Z,100.00
2023-02-12T21:06:55.199Z,100.00
2023-02-12T21:09:56.805Z,100.00
2023-02-12T21:12:58.496Z,100.00
2023-02-12T21:16:06.815Z,100.00
2023-02-12T21:19:08.748Z,100.00
2023-02-12T21:22:10.232Z,100.00
2023-02-12T21:25:11.724Z,100.00
2023-02-12T21:28:13.245Z,100.00
2023-02-12T21:31:16.662Z,100.00
2023-02-12T21:34:20.488Z,100.00
2023-02-12T21:37:22.003Z,100.00
2023-02-12T21:40:23.758Z,100.00
2023-02-12T21:43:25.377Z,100.00
2023-02-12T21:46:27.188Z,100.00
2023-02-12T21:49:28.943Z,100.00
2023-02-12T21:52:30.512Z,100.00
2023-02-12T21:55:32.402Z,100.00
2023-02-12T21:58:34.192Z,100.00
2023-02-12T22:01:37.711Z,100.00
2023-02-12T22:04:39.224Z,100.00
2023-02-12T22:07:40.711Z,100.00
2023-02-12T22:10:42.215Z,100.00
2023-02-12T22:13:43.837Z,100.00
2023-02-12T22:16:45.525Z,100.00
2023-02-12T22:19:47.178Z,100.00
2023-02-12T22:22:48.721Z,100.00
2023-02-12T22:25:50.225Z,100.00
2023-02-12T22:28:57.045Z,100.00
2023-02-12T22:31:58.613Z,100.00
2023-02-12T22:35:00.343Z,100.00
2023-02-12T22:38:02.997Z,100.00
2023-02-12T22:41:05.349Z,100.00
2023-02-12T22:44:07.076Z,100.00
2023-02-12T22:47:09.327Z,100.00
2023-02-12T22:50:11.077Z,100.00
2023-02-12T22:53:12.613Z,100.00
2023-02-12T22:56:14.304Z,100.00
2023-02-12T22:59:15.803Z,100.00
2023-02-12T23:02:17.344Z,100.00
2023-02-12T23:05:18.931Z,100.00
2023-02-12T23:08:20.526Z,100.00
2023-02-12T23:11:24.636Z,100.00
2023-02-12T23:14:26.591Z,100.00
2023-02-12T23:17:28.166Z,100.00
2023-02-12T23:20:29.679Z,100.00
2023-02-12T23:23:31.205Z,100.00
2023-02-12T23:26:32.795Z,100.00
2023-02-12T23:29:35.092Z,100.00
2023-02-12T23:32:36.715Z,100.00
2023-02-12T23:35:38.318Z,100.00
2023-02-12T23:38:39.830Z,100.00
2023-02-12T23:41:41.406Z,100.00
2023-02-12T23:44:43.016Z,100.00
2023-02-12T23:47:44.660Z,100.00
2023-02-12T23:50:48.235Z,100.00
2023-02-12T23:53:50.995Z,100.00
2023-02-12T23:56:52.456Z,100.00
2023-02-12T23:59:54.646Z,100.00
